<?xml version='1.0' encoding='UTF-8'?><gpx version="1.1" creator="JPX - https://github.com/jenetics/jpx" xmlns="http://www.topografix.com/GPX/1/1"><trk><trkseg><trkpt lat="43.344335337962164" lon="11.104268466934432"><ele>205.0</ele><time>2026-04-11T07:25:08Z</time></trkpt><trkpt lat="43.344311625474994" lon="11.10438457774284"><ele>205.0</ele><time>2026-04-11T07:25:09Z</time></trkpt><trkpt lat="43.34432643488822" lon="11.104472612608825"><ele>205.0</ele><time>2026-04-11T07:25:10Z</time></trkpt><trkpt lat="43.34430875127719" lon="11.104604057831263"><ele>205.0</ele><time>2026-04-11T07:25:12Z</time></trkpt><trkpt lat="43.34417571970715" lon="11.104674590729026"><ele>205.0</ele><time>2026-04-11T07:25:14Z</time></trkpt><trkpt lat="43.34412606227716" lon="11.104747178031984"><ele>205.0</ele><time>2026-04-11T07:25:15Z</time></trkpt><trkpt lat="43.344087215288866" lon="11.104854373437052"><ele>205.0</ele><time>2026-04-11T07:25:16Z</time></trkpt><trkpt lat="43.3440618551056" lon="11.10493912291174"><ele>205.0</ele><time>2026-04-11T07:25:17Z</time></trkpt><trkpt lat="43.34403580429319" lon="11.1050873840767"><ele>205.0</ele><time>2026-04-11T07:25:19Z</time></trkpt><trkpt lat="43.344053681507546" lon="11.105255320796672"><ele>205.0</ele><time>2026-04-11T07:25:21Z</time></trkpt><trkpt lat="43.34406104510862" lon="11.10534160432066"><ele>206.6</ele><time>2026-04-11T07:25:22Z</time></trkpt><trkpt lat="43.34406554923245" lon="11.105453195872496"><ele>208.2</ele><time>2026-04-11T07:25:24Z</time></trkpt><trkpt lat="43.34406410719726" lon="11.10558217403333"><ele>209.8</ele><time>2026-04-11T07:25:26Z</time></trkpt><trkpt lat="43.34408486566477" lon="11.105672811116328"><ele>211.4</ele><time>2026-04-11T07:25:27Z</time></trkpt><trkpt lat="43.3441662834407" lon="11.105744896026565"><ele>213.0</ele><time>2026-04-11T07:25:29Z</time></trkpt><trkpt lat="43.34418925029201" lon="11.105933578544684"><ele>215.0</ele><time>2026-04-11T07:25:31Z</time></trkpt><trkpt lat="43.34418152390044" lon="11.106037649353066"><ele>217.0</ele><time>2026-04-11T07:25:32Z</time></trkpt><trkpt lat="43.34424344352817" lon="11.106134156211322"><ele>219.0</ele><time>2026-04-11T07:25:34Z</time></trkpt><trkpt lat="43.344268867135774" lon="11.106225695129808"><ele>221.0</ele><time>2026-04-11T07:25:35Z</time></trkpt><trkpt lat="43.34429062351583" lon="11.106324838548437"><ele>223.0</ele><time>2026-04-11T07:25:37Z</time></trkpt><trkpt lat="43.34439047397347" lon="11.106337464352178"><ele>225.0</ele><time>2026-04-11T07:25:39Z</time></trkpt><trkpt lat="43.344483305121464" lon="11.106337144607359"><ele>225.0</ele><time>2026-04-11T07:25:40Z</time></trkpt><trkpt lat="43.3445422214784" lon="11.106377018847382"><ele>225.0</ele><time>2026-04-11T07:25:41Z</time></trkpt><trkpt lat="43.344598838543874" lon="11.106449088159092"><ele>225.0</ele><time>2026-04-11T07:25:42Z</time></trkpt><trkpt lat="43.34470371886408" lon="11.106502079416"><ele>225.0</ele><time>2026-04-11T07:25:44Z</time></trkpt><trkpt lat="43.34479239032654" lon="11.10656468703118"><ele>225.0</ele><time>2026-04-11T07:25:46Z</time></trkpt><trkpt lat="43.34491127200214" lon="11.106555420571887"><ele>227.2</ele><time>2026-04-11T07:25:48Z</time></trkpt><trkpt lat="43.34502236594689" lon="11.106486449633787"><ele>229.4</ele><time>2026-04-11T07:25:49Z</time></trkpt><trkpt lat="43.34510098863837" lon="11.106496584179858"><ele>231.60000000000002</ele><time>2026-04-11T07:25:50Z</time></trkpt><trkpt lat="43.34516303319311" lon="11.106514864255361"><ele>233.8</ele><time>2026-04-11T07:25:51Z</time></trkpt><trkpt lat="43.34518398138881" lon="11.106659138093336"><ele>236.0</ele><time>2026-04-11T07:25:53Z</time></trkpt><trkpt lat="43.34516895218468" lon="11.106799697074377"><ele>238.50000000000003</ele><time>2026-04-11T07:25:55Z</time></trkpt><trkpt lat="43.34524427194611" lon="11.10683219158505"><ele>241.0</ele><time>2026-04-11T07:25:57Z</time></trkpt><trkpt lat="43.34531555156359" lon="11.106876326748301"><ele>243.5</ele><time>2026-04-11T07:25:58Z</time></trkpt><trkpt lat="43.345324224167086" lon="11.106988397019457"><ele>246.0</ele><time>2026-04-11T07:26:00Z</time></trkpt><trkpt lat="43.345372596967415" lon="11.107050803390301"><ele>248.50000000000003</ele><time>2026-04-11T07:26:01Z</time></trkpt><trkpt lat="43.34543594261555" lon="11.107059706211162"><ele>251.0</ele><time>2026-04-11T07:26:02Z</time></trkpt><trkpt lat="43.34551229770289" lon="11.107115452048383"><ele>251.00000000000003</ele><time>2026-04-11T07:26:04Z</time></trkpt><trkpt lat="43.34551729422153" lon="11.107212440986787"><ele>251.0</ele><time>2026-04-11T07:26:05Z</time></trkpt><trkpt lat="43.34553728804334" lon="11.107376462597003"><ele>251.0</ele><time>2026-04-11T07:26:07Z</time></trkpt><trkpt lat="43.345466309089076" lon="11.107420701765573"><ele>251.0</ele><time>2026-04-11T07:26:08Z</time></trkpt><trkpt lat="43.345389663773766" lon="11.107464884555315"><ele>251.00000000000003</ele><time>2026-04-11T07:26:09Z</time></trkpt><trkpt lat="43.34533420170781" lon="11.107539142530126"><ele>251.0</ele><time>2026-04-11T07:26:10Z</time></trkpt><trkpt lat="43.34528655854527" lon="11.107620796051298"><ele>252.16666666666669</ele><time>2026-04-11T07:26:11Z</time></trkpt><trkpt lat="43.34523559113915" lon="11.107688005975938"><ele>253.33333333333334</ele><time>2026-04-11T07:26:12Z</time></trkpt><trkpt lat="43.34518139263522" lon="11.107745966460492"><ele>254.5</ele><time>2026-04-11T07:26:13Z</time></trkpt><trkpt lat="43.34512085289403" lon="11.107879335053786"><ele>255.66666666666669</ele><time>2026-04-11T07:26:15Z</time></trkpt><trkpt lat="43.34511561287003" lon="11.107969229487352"><ele>256.8333333333333</ele><time>2026-04-11T07:26:16Z</time></trkpt><trkpt lat="43.34509012538867" lon="11.108126938779323"><ele>258.0</ele><time>2026-04-11T07:26:18Z</time></trkpt><trkpt lat="43.34509762981673" lon="11.108214436139626"><ele>259.0</ele><time>2026-04-11T07:26:19Z</time></trkpt><trkpt lat="43.345107570747814" lon="11.108352635843751"><ele>260.0</ele><time>2026-04-11T07:26:20Z</time></trkpt><trkpt lat="43.34513368940854" lon="11.108530485435889"><ele>261.0</ele><time>2026-04-11T07:26:21Z</time></trkpt><trkpt lat="43.34514366061869" lon="11.108681051623511"><ele>262.0</ele><time>2026-04-11T07:26:22Z</time></trkpt><trkpt lat="43.34514392848987" lon="11.108799620245199"><ele>263.0</ele><time>2026-04-11T07:26:23Z</time></trkpt><trkpt lat="43.345102674508816" lon="11.108951204132783"><ele>263.0</ele><time>2026-04-11T07:26:25Z</time></trkpt><trkpt lat="43.34498510673765" lon="11.108989277925225"><ele>263.0</ele><time>2026-04-11T07:26:27Z</time></trkpt><trkpt lat="43.34492166637626" lon="11.109056305406313"><ele>263.0</ele><time>2026-04-11T07:26:29Z</time></trkpt><trkpt lat="43.344836188406255" lon="11.108975291767916"><ele>263.0</ele><time>2026-04-11T07:26:31Z</time></trkpt><trkpt lat="43.344712927000124" lon="11.108964520665827"><ele>263.0</ele><time>2026-04-11T07:26:33Z</time></trkpt><trkpt lat="43.34461882087951" lon="11.108971472121333"><ele>262.5</ele><time>2026-04-11T07:26:34Z</time></trkpt><trkpt lat="43.34454811640444" lon="11.109009612939698"><ele>262.0</ele><time>2026-04-11T07:26:35Z</time></trkpt><trkpt lat="43.34445940631366" lon="11.109078230426014"><ele>261.5</ele><time>2026-04-11T07:26:36Z</time></trkpt><trkpt lat="43.344384955741035" lon="11.109144061123738"><ele>261.0</ele><time>2026-04-11T07:26:37Z</time></trkpt><trkpt lat="43.344320226483724" lon="11.109187440779897"><ele>260.5</ele><time>2026-04-11T07:26:38Z</time></trkpt><trkpt lat="43.34423134564025" lon="11.109189326281273"><ele>260.0</ele><time>2026-04-11T07:26:39Z</time></trkpt><trkpt lat="43.344125691172074" lon="11.109159862992938"><ele>259.4</ele><time>2026-04-11T07:26:40Z</time></trkpt><trkpt lat="43.344001983449495" lon="11.109135239497142"><ele>258.8</ele><time>2026-04-11T07:26:41Z</time></trkpt><trkpt lat="43.34388737853398" lon="11.109123208886515"><ele>258.2</ele><time>2026-04-11T07:26:42Z</time></trkpt><trkpt lat="43.343793777582285" lon="11.109094321521438"><ele>257.6</ele><time>2026-04-11T07:26:43Z</time></trkpt><trkpt lat="43.34372298092844" lon="11.109059361973673"><ele>257.0</ele><time>2026-04-11T07:26:44Z</time></trkpt><trkpt lat="43.34365487833731" lon="11.10903573731736"><ele>257.0</ele><time>2026-04-11T07:26:45Z</time></trkpt><trkpt lat="43.34355713456526" lon="11.109051831901503"><ele>257.0</ele><time>2026-04-11T07:26:47Z</time></trkpt><trkpt lat="43.3435095171854" lon="11.109115752765275"><ele>257.0</ele><time>2026-04-11T07:26:48Z</time></trkpt><trkpt lat="43.343447660186875" lon="11.10924672413429"><ele>257.0</ele><time>2026-04-11T07:26:49Z</time></trkpt><trkpt lat="43.34338220561527" lon="11.109352280819806"><ele>257.0</ele><time>2026-04-11T07:26:50Z</time></trkpt><trkpt lat="43.343307488738084" lon="11.109452446656562"><ele>257.2</ele><time>2026-04-11T07:26:51Z</time></trkpt><trkpt lat="43.34323688799237" lon="11.109548136684719"><ele>257.4</ele><time>2026-04-11T07:26:52Z</time></trkpt><trkpt lat="43.34316416635703" lon="11.10962194742669"><ele>257.6</ele><time>2026-04-11T07:26:53Z</time></trkpt><trkpt lat="43.343110066905346" lon="11.109683997331551"><ele>257.8</ele><time>2026-04-11T07:26:54Z</time></trkpt><trkpt lat="43.34304789911662" lon="11.109842689430575"><ele>258.0</ele><time>2026-04-11T07:26:57Z</time></trkpt><trkpt lat="43.3430374382251" lon="11.109938771662062"><ele>258.0</ele><time>2026-04-11T07:26:58Z</time></trkpt><trkpt lat="43.343028659667716" lon="11.110029483236127"><ele>258.0</ele><time>2026-04-11T07:26:59Z</time></trkpt><trkpt lat="43.34300723834586" lon="11.1101277068268"><ele>258.0</ele><time>2026-04-11T07:27:00Z</time></trkpt><trkpt lat="43.34295224042844" lon="11.110242485976972"><ele>258.0</ele><time>2026-04-11T07:27:01Z</time></trkpt><trkpt lat="43.34289062708144" lon="11.110322252199516"><ele>258.0</ele><time>2026-04-11T07:27:02Z</time></trkpt><trkpt lat="43.342842331679684" lon="11.110404496645518"><ele>258.0</ele><time>2026-04-11T07:27:03Z</time></trkpt><trkpt lat="43.34280592617114" lon="11.110497876461936"><ele>258.0</ele><time>2026-04-11T07:27:04Z</time></trkpt><trkpt lat="43.342795296966315" lon="11.11061162540603"><ele>258.0</ele><time>2026-04-11T07:27:05Z</time></trkpt><trkpt lat="43.3428085000581" lon="11.110732053770853"><ele>258.0</ele><time>2026-04-11T07:27:06Z</time></trkpt><trkpt lat="43.34283082874956" lon="11.110853907685936"><ele>258.0</ele><time>2026-04-11T07:27:07Z</time></trkpt><trkpt lat="43.34282059508229" lon="11.110973865083876"><ele>258.0</ele><time>2026-04-11T07:27:08Z</time></trkpt><trkpt lat="43.34276290927747" lon="11.111108463740626"><ele>258.0</ele><time>2026-04-11T07:27:09Z</time></trkpt><trkpt lat="43.34272261804688" lon="11.111217384217404"><ele>258.0</ele><time>2026-04-11T07:27:10Z</time></trkpt><trkpt lat="43.34266695614159" lon="11.111291290747005"><ele>258.0</ele><time>2026-04-11T07:27:11Z</time></trkpt><trkpt lat="43.342583471516654" lon="11.111326975290266"><ele>258.0</ele><time>2026-04-11T07:27:12Z</time></trkpt><trkpt lat="43.34250920273738" lon="11.111353207214416"><ele>258.0</ele><time>2026-04-11T07:27:13Z</time></trkpt><trkpt lat="43.3424349142277" lon="11.111358282584474"><ele>258.0</ele><time>2026-04-11T07:27:14Z</time></trkpt><trkpt lat="43.3423601705231" lon="11.11137723819545"><ele>258.0</ele><time>2026-04-11T07:27:15Z</time></trkpt><trkpt lat="43.342284435039815" lon="11.111345680465677"><ele>258.0</ele><time>2026-04-11T07:27:16Z</time></trkpt><trkpt lat="43.34217960268545" lon="11.111307836846175"><ele>258.0</ele><time>2026-04-11T07:27:18Z</time></trkpt><trkpt lat="43.342107287590885" lon="11.111292155592007"><ele>258.0</ele><time>2026-04-11T07:27:20Z</time></trkpt><trkpt lat="43.34208261605681" lon="11.111193698314294"><ele>258.0</ele><time>2026-04-11T07:27:24Z</time></trkpt><trkpt lat="43.342013501262365" lon="11.111125287658599"><ele>258.0</ele><time>2026-04-11T07:27:26Z</time></trkpt><trkpt lat="43.3419436071763" lon="11.111050267200671"><ele>254.60000000000002</ele><time>2026-04-11T07:27:28Z</time></trkpt><trkpt lat="43.34185518334926" lon="11.111041920231155"><ele>251.20000000000002</ele><time>2026-04-11T07:27:29Z</time></trkpt><trkpt lat="43.34175520004743" lon="11.110971333088647"><ele>247.8</ele><time>2026-04-11T07:27:31Z</time></trkpt><trkpt lat="43.34165244783263" lon="11.110951976564667"><ele>244.4</ele><time>2026-04-11T07:27:33Z</time></trkpt><trkpt lat="43.34160081580465" lon="11.110870019253138"><ele>241.0</ele><time>2026-04-11T07:27:34Z</time></trkpt><trkpt lat="43.34151191626152" lon="11.110753619952801"><ele>240.8</ele><time>2026-04-11T07:27:36Z</time></trkpt><trkpt lat="43.34144888284085" lon="11.110733309589383"><ele>240.60000000000002</ele><time>2026-04-11T07:27:37Z</time></trkpt><trkpt lat="43.34136489741345" lon="11.110620553647683"><ele>240.4</ele><time>2026-04-11T07:27:39Z</time></trkpt><trkpt lat="43.341331497164475" lon="11.11052859911582"><ele>240.2</ele><time>2026-04-11T07:27:41Z</time></trkpt><trkpt lat="43.34122617805779" lon="11.110482917792963"><ele>240.0</ele><time>2026-04-11T07:27:43Z</time></trkpt><trkpt lat="43.34114326681137" lon="11.110437410540966"><ele>238.5</ele><time>2026-04-11T07:27:45Z</time></trkpt><trkpt lat="43.341087130571694" lon="11.110312848589105"><ele>237.0</ele><time>2026-04-11T07:27:47Z</time></trkpt><trkpt lat="43.34101522439783" lon="11.110313248070602"><ele>235.5</ele><time>2026-04-11T07:27:48Z</time></trkpt><trkpt lat="43.34093546152196" lon="11.110320346672744"><ele>234.0</ele><time>2026-04-11T07:27:49Z</time></trkpt><trkpt lat="43.34085783657956" lon="11.110407815043402"><ele>232.5</ele><time>2026-04-11T07:27:51Z</time></trkpt><trkpt lat="43.34083404182806" lon="11.110492725817391"><ele>231.0</ele><time>2026-04-11T07:27:52Z</time></trkpt><trkpt lat="43.340822353013394" lon="11.110590366395655"><ele>231.0</ele><time>2026-04-11T07:27:54Z</time></trkpt><trkpt lat="43.340753078240766" lon="11.110617623602556"><ele>231.00000000000003</ele><time>2026-04-11T07:27:58Z</time></trkpt><trkpt lat="43.34069089518549" lon="11.110570692096776"><ele>231.00000000000003</ele><time>2026-04-11T07:27:59Z</time></trkpt><trkpt lat="43.34057142174978" lon="11.110577099339624"><ele>231.0</ele><time>2026-04-11T07:28:01Z</time></trkpt><trkpt lat="43.34048089415933" lon="11.11064773539993"><ele>231.0</ele><time>2026-04-11T07:28:02Z</time></trkpt><trkpt lat="43.34041188489853" lon="11.110716701829281"><ele>230.4</ele><time>2026-04-11T07:28:03Z</time></trkpt><trkpt lat="43.3403330482674" lon="11.110698725354181"><ele>229.8</ele><time>2026-04-11T07:28:05Z</time></trkpt><trkpt lat="43.340237994524514" lon="11.110775818177412"><ele>229.20000000000002</ele><time>2026-04-11T07:28:13Z</time></trkpt><trkpt lat="43.340138925791315" lon="11.11087112666041"><ele>228.60000000000002</ele><time>2026-04-11T07:28:15Z</time></trkpt><trkpt lat="43.340060840179774" lon="11.110967217899628"><ele>228.0</ele><time>2026-04-11T07:28:17Z</time></trkpt><trkpt lat="43.34001152118111" lon="11.110798999321252"><ele>227.83333333333334</ele><time>2026-04-11T07:28:21Z</time></trkpt><trkpt lat="43.34001573411418" lon="11.110709665575664"><ele>227.66666666666669</ele><time>2026-04-11T07:28:22Z</time></trkpt><trkpt lat="43.340079817917506" lon="11.110652413915101"><ele>227.5</ele><time>2026-04-11T07:28:24Z</time></trkpt><trkpt lat="43.34003434026206" lon="11.110550526063227"><ele>227.33333333333334</ele><time>2026-04-11T07:28:29Z</time></trkpt><trkpt lat="43.339987331638014" lon="11.110455145929862"><ele>227.16666666666669</ele><time>2026-04-11T07:28:30Z</time></trkpt><trkpt lat="43.33993020098191" lon="11.110329867185499"><ele>227.0</ele><time>2026-04-11T07:28:31Z</time></trkpt><trkpt lat="43.339882846245104" lon="11.110193676956907"><ele>227.0</ele><time>2026-04-11T07:28:32Z</time></trkpt><trkpt lat="43.339837242209086" lon="11.110061716240512"><ele>227.0</ele><time>2026-04-11T07:28:33Z</time></trkpt><trkpt lat="43.33979563172212" lon="11.109969940807535"><ele>227.0</ele><time>2026-04-11T07:28:34Z</time></trkpt><trkpt lat="43.33978620650012" lon="11.109877466414025"><ele>227.0</ele><time>2026-04-11T07:28:35Z</time></trkpt><trkpt lat="43.33973175330743" lon="11.109715526775187"><ele>227.0</ele><time>2026-04-11T07:28:36Z</time></trkpt><trkpt lat="43.33970489119271" lon="11.109554226879434"><ele>226.50000000000003</ele><time>2026-04-11T07:28:37Z</time></trkpt><trkpt lat="43.339686518817075" lon="11.109434321940757"><ele>226.0</ele><time>2026-04-11T07:28:38Z</time></trkpt><trkpt lat="43.33966732229217" lon="11.109282569414452"><ele>225.5</ele><time>2026-04-11T07:28:40Z</time></trkpt><trkpt lat="43.33965278324838" lon="11.109190928418023"><ele>225.0</ele><time>2026-04-11T07:28:41Z</time></trkpt><trkpt lat="43.339647940124415" lon="11.109084550503214"><ele>224.50000000000003</ele><time>2026-04-11T07:28:42Z</time></trkpt><trkpt lat="43.33965708937129" lon="11.108985298897295"><ele>224.0</ele><time>2026-04-11T07:28:43Z</time></trkpt><trkpt lat="43.33964164239414" lon="11.108892651509192"><ele>223.79999999999998</ele><time>2026-04-11T07:28:44Z</time></trkpt><trkpt lat="43.33958759302534" lon="11.108753540888037"><ele>223.59999999999997</ele><time>2026-04-11T07:28:45Z</time></trkpt><trkpt lat="43.339556660127315" lon="11.108617774043491"><ele>223.4</ele><time>2026-04-11T07:28:46Z</time></trkpt><trkpt lat="43.33951950922184" lon="11.108499631834531"><ele>223.2</ele><time>2026-04-11T07:28:47Z</time></trkpt><trkpt lat="43.33949221548069" lon="11.108376931021086"><ele>223.0</ele><time>2026-04-11T07:28:48.001Z</time></trkpt><trkpt lat="43.33947302603777" lon="11.108256217005238"><ele>221.99999999999997</ele><time>2026-04-11T07:28:49.001Z</time></trkpt><trkpt lat="43.33945709206984" lon="11.108136365373982"><ele>221.0</ele><time>2026-04-11T07:28:50.001Z</time></trkpt><trkpt lat="43.339429484176144" lon="11.108019732201855"><ele>220.0</ele><time>2026-04-11T07:28:51.001Z</time></trkpt><trkpt lat="43.33941846588858" lon="11.107905873774197"><ele>219.0</ele><time>2026-04-11T07:28:53.001Z</time></trkpt><trkpt lat="43.339336330678044" lon="11.107884479020482"><ele>217.99999999999997</ele><time>2026-04-11T07:28:55.001Z</time></trkpt><trkpt lat="43.33936363926229" lon="11.107796599983653"><ele>217.0</ele><time>2026-04-11T07:28:57.001Z</time></trkpt><trkpt lat="43.33938405140497" lon="11.107686145069673"><ele>217.0</ele><time>2026-04-11T07:28:59.001Z</time></trkpt><trkpt lat="43.33937147467541" lon="11.107570595224816"><ele>217.0</ele><time>2026-04-11T07:29:00.001Z</time></trkpt><trkpt lat="43.339333970781404" lon="11.107443812999447"><ele>217.0</ele><time>2026-04-11T07:29:01.001Z</time></trkpt><trkpt lat="43.33928708585946" lon="11.107291465237632"><ele>217.0</ele><time>2026-04-11T07:29:02.001Z</time></trkpt><trkpt lat="43.33920764347192" lon="11.107179057078222"><ele>217.0</ele><time>2026-04-11T07:29:03.001Z</time></trkpt><trkpt lat="43.33914865882266" lon="11.10708279391342"><ele>216.49999999999997</ele><time>2026-04-11T07:29:04.001Z</time></trkpt><trkpt lat="43.33912825488627" lon="11.10694642441522"><ele>216.0</ele><time>2026-04-11T07:29:05.001Z</time></trkpt><trkpt lat="43.33911906083392" lon="11.10684762490667"><ele>215.5</ele><time>2026-04-11T07:29:06.001Z</time></trkpt><trkpt lat="43.339103759998245" lon="11.106748738108031"><ele>215.0</ele><time>2026-04-11T07:29:07.001Z</time></trkpt><trkpt lat="43.339085657849644" lon="11.106628774209184"><ele>214.49999999999997</ele><time>2026-04-11T07:29:08Z</time></trkpt><trkpt lat="43.33906245526506" lon="11.106492295292018"><ele>214.0</ele><time>2026-04-11T07:29:09Z</time></trkpt><trkpt lat="43.339041659817035" lon="11.106372998143485"><ele>213.2</ele><time>2026-04-11T07:29:10Z</time></trkpt><trkpt lat="43.33900698232849" lon="11.106261606081354"><ele>212.39999999999998</ele><time>2026-04-11T07:29:11Z</time></trkpt><trkpt lat="43.3389741792463" lon="11.10614179320614"><ele>211.6</ele><time>2026-04-11T07:29:12Z</time></trkpt><trkpt lat="43.338878841538" lon="11.10601778506093"><ele>210.8</ele><time>2026-04-11T07:29:14Z</time></trkpt><trkpt lat="43.33878608384148" lon="11.105885198415944"><ele>210.0</ele><time>2026-04-11T07:29:16Z</time></trkpt><trkpt lat="43.33872935042202" lon="11.105820106404622"><ele>209.0</ele><time>2026-04-11T07:29:17Z</time></trkpt><trkpt lat="43.3386811366444" lon="11.105730080330092"><ele>208.0</ele><time>2026-04-11T07:29:18Z</time></trkpt><trkpt lat="43.338639179649824" lon="11.10563388460631"><ele>207.0</ele><time>2026-04-11T07:29:19Z</time></trkpt><trkpt lat="43.33857950552218" lon="11.105577306466389"><ele>206.0</ele><time>2026-04-11T07:29:20Z</time></trkpt><trkpt lat="43.33847510048499" lon="11.105501285279686"><ele>205.0</ele><time>2026-04-11T07:29:21Z</time></trkpt><trkpt lat="43.3383716996845" lon="11.105454914970705"><ele>204.99999999999997</ele><time>2026-04-11T07:29:22Z</time></trkpt><trkpt lat="43.33828961035183" lon="11.105430197353135"><ele>205.0</ele><time>2026-04-11T07:29:23Z</time></trkpt><trkpt lat="43.33817344217762" lon="11.105424832625442"><ele>205.0</ele><time>2026-04-11T07:29:25Z</time></trkpt><trkpt lat="43.338111698413584" lon="11.105388515496967"><ele>205.0</ele><time>2026-04-11T07:29:27Z</time></trkpt><trkpt lat="43.338035831295684" lon="11.105316386204175"><ele>204.99999999999997</ele><time>2026-04-11T07:29:29Z</time></trkpt><trkpt lat="43.33795658300247" lon="11.105327327422904"><ele>205.0</ele><time>2026-04-11T07:29:31Z</time></trkpt><trkpt lat="43.337875776158555" lon="11.105285151626745"><ele>204.8</ele><time>2026-04-11T07:29:32Z</time></trkpt><trkpt lat="43.33783456435201" lon="11.105164271999415"><ele>204.6</ele><time>2026-04-11T07:29:33Z</time></trkpt><trkpt lat="43.33774209386775" lon="11.10505227787097"><ele>204.39999999999998</ele><time>2026-04-11T07:29:35Z</time></trkpt><trkpt lat="43.337734395466576" lon="11.104909220208674"><ele>204.2</ele><time>2026-04-11T07:29:36Z</time></trkpt><trkpt lat="43.33768432140946" lon="11.10481880506643"><ele>204.0</ele><time>2026-04-11T07:29:37Z</time></trkpt><trkpt lat="43.33759765670623" lon="11.104729018974275"><ele>203.75</ele><time>2026-04-11T07:29:38Z</time></trkpt><trkpt lat="43.33748124717445" lon="11.104671544678048"><ele>203.5</ele><time>2026-04-11T07:29:39Z</time></trkpt><trkpt lat="43.33737858755488" lon="11.104621904366748"><ele>203.25</ele><time>2026-04-11T07:29:40Z</time></trkpt><trkpt lat="43.33726839779735" lon="11.104581573550092"><ele>203.0</ele><time>2026-04-11T07:29:41Z</time></trkpt><trkpt lat="43.337149752210216" lon="11.104523239625262"><ele>204.2</ele><time>2026-04-11T07:29:42Z</time></trkpt><trkpt lat="43.33705228413295" lon="11.104458586181298"><ele>205.4</ele><time>2026-04-11T07:29:43Z</time></trkpt><trkpt lat="43.33696847598997" lon="11.104401274929604"><ele>206.6</ele><time>2026-04-11T07:29:44Z</time></trkpt><trkpt lat="43.336874201268685" lon="11.104335123583537"><ele>207.79999999999998</ele><time>2026-04-11T07:29:45Z</time></trkpt><trkpt lat="43.336791995720816" lon="11.104304319733977"><ele>209.0</ele><time>2026-04-11T07:29:46Z</time></trkpt><trkpt lat="43.33671201139184" lon="11.104395676955061"><ele>209.00000000000003</ele><time>2026-04-11T07:29:48Z</time></trkpt><trkpt lat="43.33670809691219" lon="11.104499029674777"><ele>209.0</ele><time>2026-04-11T07:29:49Z</time></trkpt><trkpt lat="43.33663249483506" lon="11.104532241634788"><ele>209.0</ele><time>2026-04-11T07:29:51Z</time></trkpt><trkpt lat="43.33655629848253" lon="11.104528873639945"><ele>209.0</ele><time>2026-04-11T07:29:52Z</time></trkpt><trkpt lat="43.33656254827911" lon="11.104688782146082"><ele>209.00000000000003</ele><time>2026-04-11T07:29:54Z</time></trkpt><trkpt lat="43.33652350556649" lon="11.104762504612545"><ele>209.0</ele><time>2026-04-11T07:29:55Z</time></trkpt><trkpt lat="43.33646206857834" lon="11.104800322699964"><ele>209.00000000000003</ele><time>2026-04-11T07:29:56Z</time></trkpt><trkpt lat="43.33640302503072" lon="11.104836048661333"><ele>209.0</ele><time>2026-04-11T07:29:57Z</time></trkpt><trkpt lat="43.33630056194052" lon="11.10487059153072"><ele>209.0</ele><time>2026-04-11T07:29:59Z</time></trkpt><trkpt lat="43.33623151150294" lon="11.104859505269998"><ele>209.0</ele><time>2026-04-11T07:30:00Z</time></trkpt><trkpt lat="43.33615057402593" lon="11.104840482984814"><ele>209.00000000000003</ele><time>2026-04-11T07:30:01Z</time></trkpt><trkpt lat="43.33606928699953" lon="11.104825684550073"><ele>209.0</ele><time>2026-04-11T07:30:02Z</time></trkpt><trkpt lat="43.335979522749994" lon="11.104844313057601"><ele>208.79999999999998</ele><time>2026-04-11T07:30:03Z</time></trkpt><trkpt lat="43.3358797823842" lon="11.1049076142022"><ele>208.6</ele><time>2026-04-11T07:30:04Z</time></trkpt><trkpt lat="43.33575679713185" lon="11.104994451126268"><ele>208.4</ele><time>2026-04-11T07:30:05Z</time></trkpt><trkpt lat="43.3356620498047" lon="11.105051239680515"><ele>208.2</ele><time>2026-04-11T07:30:06Z</time></trkpt><trkpt lat="43.33558582500534" lon="11.105080910370242"><ele>208.0</ele><time>2026-04-11T07:30:07Z</time></trkpt><trkpt lat="43.335501165344056" lon="11.105073360594123"><ele>208.2</ele><time>2026-04-11T07:30:09Z</time></trkpt><trkpt lat="43.33542959780038" lon="11.10502688054017"><ele>208.4</ele><time>2026-04-11T07:30:10Z</time></trkpt><trkpt lat="43.33535560942096" lon="11.104973519500415"><ele>208.6</ele><time>2026-04-11T07:30:11Z</time></trkpt><trkpt lat="43.33527510355189" lon="11.104870314834844"><ele>208.79999999999998</ele><time>2026-04-11T07:30:13Z</time></trkpt><trkpt lat="43.3352155490063" lon="11.104777061041135"><ele>209.0</ele><time>2026-04-11T07:30:14Z</time></trkpt><trkpt lat="43.33514115781253" lon="11.104689734981852"><ele>209.00000000000003</ele><time>2026-04-11T07:30:15Z</time></trkpt><trkpt lat="43.33505697557365" lon="11.104593080970485"><ele>209.0</ele><time>2026-04-11T07:30:16Z</time></trkpt><trkpt lat="43.33500248917848" lon="11.104501867294376"><ele>209.0</ele><time>2026-04-11T07:30:17Z</time></trkpt><trkpt lat="43.33494807542253" lon="11.104422008256446"><ele>209.0</ele><time>2026-04-11T07:30:18Z</time></trkpt><trkpt lat="43.33488936089516" lon="11.104362003757986"><ele>209.00000000000003</ele><time>2026-04-11T07:30:19Z</time></trkpt><trkpt lat="43.334893008427" lon="11.104479117367452"><ele>209.0</ele><time>2026-04-11T07:30:27Z</time></trkpt><trkpt lat="43.33492790839877" lon="11.104559247236054"><ele>209.0</ele><time>2026-04-11T07:30:28Z</time></trkpt><trkpt lat="43.33497763417115" lon="11.104897684446069"><ele>209.0</ele><time>2026-04-11T07:30:31Z</time></trkpt><trkpt lat="43.334913842761786" lon="11.105022779389937"><ele>209.0</ele><time>2026-04-11T07:30:32Z</time></trkpt><trkpt lat="43.33489267131411" lon="11.105159638812532"><ele>209.2</ele><time>2026-04-11T07:30:33Z</time></trkpt><trkpt lat="43.334847117654796" lon="11.105291214803868"><ele>209.39999999999998</ele><time>2026-04-11T07:30:34Z</time></trkpt><trkpt lat="43.33482131747876" lon="11.105447295672748"><ele>209.6</ele><time>2026-04-11T07:30:35Z</time></trkpt><trkpt lat="43.33479562932889" lon="11.105571625126949"><ele>209.8</ele><time>2026-04-11T07:30:36Z</time></trkpt><trkpt lat="43.33471907047588" lon="11.10569176656994"><ele>210.0</ele><time>2026-04-11T07:30:37Z</time></trkpt><trkpt lat="43.33465747980515" lon="11.105830777442945"><ele>210.4</ele><time>2026-04-11T07:30:38Z</time></trkpt><trkpt lat="43.33459912036047" lon="11.105953009813609"><ele>210.8</ele><time>2026-04-11T07:30:39Z</time></trkpt><trkpt lat="43.33452234950384" lon="11.1060670422625"><ele>211.2</ele><time>2026-04-11T07:30:40Z</time></trkpt><trkpt lat="43.33445450569085" lon="11.106148472036503"><ele>211.6</ele><time>2026-04-11T07:30:41Z</time></trkpt><trkpt lat="43.334364043435734" lon="11.106194770864128"><ele>212.0</ele><time>2026-04-11T07:30:43Z</time></trkpt><trkpt lat="43.33438911891214" lon="11.106329738960223"><ele>212.00000000000003</ele><time>2026-04-11T07:30:45Z</time></trkpt><trkpt lat="43.33428606629854" lon="11.106385567530458"><ele>212.0</ele><time>2026-04-11T07:30:48Z</time></trkpt><trkpt lat="43.33421080664072" lon="11.106452047972798"><ele>212.0</ele><time>2026-04-11T07:30:49Z</time></trkpt><trkpt lat="43.33414190231633" lon="11.106465069220251"><ele>212.0</ele><time>2026-04-11T07:30:51Z</time></trkpt><trkpt lat="43.33408890391469" lon="11.10641827193661"><ele>212.00000000000003</ele><time>2026-04-11T07:31:44Z</time></trkpt><trkpt lat="43.33401656159855" lon="11.106364135884297"><ele>212.0</ele><time>2026-04-11T07:31:51Z</time></trkpt><trkpt lat="43.333978942135964" lon="11.106248269137383"><ele>212.00000000000003</ele><time>2026-04-11T07:31:53Z</time></trkpt><trkpt lat="43.334021209558735" lon="11.106361872751643"><ele>212.0</ele><time>2026-04-11T07:32:10Z</time></trkpt><trkpt lat="43.33409483414548" lon="11.106372422240078"><ele>212.0</ele><time>2026-04-11T07:32:13Z</time></trkpt><trkpt lat="43.334118190219705" lon="11.106462499618683"><ele>212.0</ele><time>2026-04-11T07:32:16Z</time></trkpt><trkpt lat="43.33409304970962" lon="11.106577373081178"><ele>212.00000000000003</ele><time>2026-04-11T07:32:27Z</time></trkpt><trkpt lat="43.334122589250036" lon="11.106737527167375"><ele>212.0</ele><time>2026-04-11T07:32:29Z</time></trkpt><trkpt lat="43.334142689926885" lon="11.106896391082298"><ele>212.16666666666669</ele><time>2026-04-11T07:32:31Z</time></trkpt><trkpt lat="43.33412136452459" lon="11.107028925887091"><ele>212.33333333333334</ele><time>2026-04-11T07:32:32Z</time></trkpt><trkpt lat="43.33412252373055" lon="11.107130268227808"><ele>212.5</ele><time>2026-04-11T07:32:33Z</time></trkpt><trkpt lat="43.33410990174206" lon="11.10722697678682"><ele>212.66666666666669</ele><time>2026-04-11T07:32:34Z</time></trkpt><trkpt lat="43.33409653744204" lon="11.107340325510357"><ele>212.83333333333334</ele><time>2026-04-11T07:32:36Z</time></trkpt><trkpt lat="43.3341552879651" lon="11.107409510150061"><ele>213.0</ele><time>2026-04-11T07:32:38Z</time></trkpt><trkpt lat="43.33424247262658" lon="11.107510914607998"><ele>213.2</ele><time>2026-04-11T07:32:40Z</time></trkpt><trkpt lat="43.33420750482962" lon="11.107674656516666"><ele>213.4</ele><time>2026-04-11T07:32:42Z</time></trkpt><trkpt lat="43.33415698408944" lon="11.107745572448142"><ele>213.59999999999997</ele><time>2026-04-11T07:32:43Z</time></trkpt><trkpt lat="43.33426016884344" lon="11.107882109138542"><ele>213.79999999999998</ele><time>2026-04-11T07:32:49Z</time></trkpt><trkpt lat="43.33430122647183" lon="11.107978296211195"><ele>214.0</ele><time>2026-04-11T07:32:52Z</time></trkpt><trkpt lat="43.33427411381557" lon="11.108100952924094"><ele>214.0</ele><time>2026-04-11T07:32:54Z</time></trkpt><trkpt lat="43.3342660378306" lon="11.108218585376468"><ele>214.0</ele><time>2026-04-11T07:32:56Z</time></trkpt><trkpt lat="43.33425221194996" lon="11.108316887182003"><ele>214.0</ele><time>2026-04-11T07:32:58Z</time></trkpt><trkpt lat="43.33418956674683" lon="11.108949077457499"><ele>213.79999999999998</ele><time>2026-04-11T07:33:01.001Z</time></trkpt><trkpt lat="43.33409867280507" lon="11.109092754000969"><ele>213.59999999999997</ele><time>2026-04-11T07:33:02.001Z</time></trkpt><trkpt lat="43.334065805596815" lon="11.10918673744094"><ele>213.4</ele><time>2026-04-11T07:33:03.001Z</time></trkpt><trkpt lat="43.334120424830196" lon="11.109233627046137"><ele>213.2</ele><time>2026-04-11T07:33:04.001Z</time></trkpt><trkpt lat="43.33410762558051" lon="11.10934487021598"><ele>213.0</ele><time>2026-04-11T07:33:06.001Z</time></trkpt><trkpt lat="43.3339814229189" lon="11.109480290663889"><ele>213.0</ele><time>2026-04-11T07:33:07.001Z</time></trkpt><trkpt lat="43.33392155754377" lon="11.109603069565374"><ele>213.0</ele><time>2026-04-11T07:33:08.001Z</time></trkpt><trkpt lat="43.333913709164065" lon="11.10970881596196"><ele>213.0</ele><time>2026-04-11T07:33:09.001Z</time></trkpt><trkpt lat="43.333929579487254" lon="11.109847377350924"><ele>213.0</ele><time>2026-04-11T07:33:10.001Z</time></trkpt><trkpt lat="43.3338863638179" lon="11.109952752057435"><ele>213.0</ele><time>2026-04-11T07:33:11.001Z</time></trkpt><trkpt lat="43.33383668639124" lon="11.11009612993358"><ele>215.25</ele><time>2026-04-11T07:33:12.001Z</time></trkpt><trkpt lat="43.333750558607555" lon="11.110276327712784"><ele>217.5</ele><time>2026-04-11T07:33:13.001Z</time></trkpt><trkpt lat="43.3336465665027" lon="11.110458609399338"><ele>219.75</ele><time>2026-04-11T07:33:14.001Z</time></trkpt><trkpt lat="43.333595667078555" lon="11.110612033832737"><ele>222.0</ele><time>2026-04-11T07:33:15Z</time></trkpt><trkpt lat="43.33352609612774" lon="11.11073194279016"><ele>222.0</ele><time>2026-04-11T07:33:16Z</time></trkpt><trkpt lat="43.33347735447726" lon="11.110914136054719"><ele>222.0</ele><time>2026-04-11T07:33:18Z</time></trkpt><trkpt lat="43.33344583914343" lon="11.111030545195229"><ele>222.0</ele><time>2026-04-11T07:33:19Z</time></trkpt><trkpt lat="43.333373832914695" lon="11.11113602983449"><ele>222.0</ele><time>2026-04-11T07:33:20Z</time></trkpt><trkpt lat="43.33331647854626" lon="11.111203704362154"><ele>222.0</ele><time>2026-04-11T07:33:21Z</time></trkpt><trkpt lat="43.33324060231494" lon="11.111167768170063"><ele>222.0</ele><time>2026-04-11T07:33:23Z</time></trkpt><trkpt lat="43.333204149924626" lon="11.111060582200228"><ele>222.0</ele><time>2026-04-11T07:33:24Z</time></trkpt><trkpt lat="43.33313282084949" lon="11.110942562390631"><ele>222.0</ele><time>2026-04-11T07:33:25Z</time></trkpt><trkpt lat="43.33305751177735" lon="11.11084243442302"><ele>222.0</ele><time>2026-04-11T07:33:26Z</time></trkpt><trkpt lat="43.332997413703914" lon="11.110751699052136"><ele>222.0</ele><time>2026-04-11T07:33:27Z</time></trkpt><trkpt lat="43.332933963777414" lon="11.110701277528676"><ele>223.33333333333334</ele><time>2026-04-11T07:33:28Z</time></trkpt><trkpt lat="43.332870355732204" lon="11.110634652248375"><ele>224.66666666666669</ele><time>2026-04-11T07:33:29Z</time></trkpt><trkpt lat="43.33280325387079" lon="11.110547418581005"><ele>226.0</ele><time>2026-04-11T07:33:30Z</time></trkpt><trkpt lat="43.332735624552626" lon="11.110499269940954"><ele>227.33333333333334</ele><time>2026-04-11T07:33:31Z</time></trkpt><trkpt lat="43.332658245206005" lon="11.110471435171434"><ele>228.66666666666669</ele><time>2026-04-11T07:33:32Z</time></trkpt><trkpt lat="43.33256532868679" lon="11.110394402536437"><ele>230.0</ele><time>2026-04-11T07:33:33Z</time></trkpt><trkpt lat="43.33246673909204" lon="11.110300309883623"><ele>230.00000000000003</ele><time>2026-04-11T07:33:34Z</time></trkpt><trkpt lat="43.33237457971053" lon="11.110245599234354"><ele>230.0</ele><time>2026-04-11T07:33:35Z</time></trkpt><trkpt lat="43.332303361464305" lon="11.110229308797482"><ele>230.0</ele><time>2026-04-11T07:33:36Z</time></trkpt><trkpt lat="43.33224303191759" lon="11.110162250876154"><ele>230.0</ele><time>2026-04-11T07:33:37Z</time></trkpt><trkpt lat="43.332181414550604" lon="11.110079030968025"><ele>230.00000000000003</ele><time>2026-04-11T07:33:38Z</time></trkpt><trkpt lat="43.3321002596071" lon="11.110007702686877"><ele>230.0</ele><time>2026-04-11T07:33:39Z</time></trkpt><trkpt lat="43.33202906073251" lon="11.109970648804593"><ele>231.6</ele><time>2026-04-11T07:33:40Z</time></trkpt><trkpt lat="43.33187772883865" lon="11.109986811466873"><ele>233.2</ele><time>2026-04-11T07:33:42Z</time></trkpt><trkpt lat="43.33180140973962" lon="11.109941892275854"><ele>234.8</ele><time>2026-04-11T07:33:43Z</time></trkpt><trkpt lat="43.331742601222345" lon="11.109868444776705"><ele>236.4</ele><time>2026-04-11T07:33:44Z</time></trkpt><trkpt lat="43.33170479888451" lon="11.109785535330444"><ele>238.0</ele><time>2026-04-11T07:33:45Z</time></trkpt><trkpt lat="43.33167166475639" lon="11.10970698166006"><ele>238.66666666666666</ele><time>2026-04-11T07:33:46Z</time></trkpt><trkpt lat="43.33164172555337" lon="11.109609772347374"><ele>239.33333333333331</ele><time>2026-04-11T07:33:47Z</time></trkpt><trkpt lat="43.331614077261975" lon="11.109491375359257"><ele>240.0</ele><time>2026-04-11T07:33:48Z</time></trkpt><trkpt lat="43.33159542097611" lon="11.10936884448526"><ele>240.66666666666669</ele><time>2026-04-11T07:33:49Z</time></trkpt><trkpt lat="43.33154887969769" lon="11.109283525014531"><ele>241.33333333333334</ele><time>2026-04-11T07:33:50Z</time></trkpt><trkpt lat="43.33147580697916" lon="11.10920919688772"><ele>242.0</ele><time>2026-04-11T07:33:51Z</time></trkpt><trkpt lat="43.33141162839549" lon="11.109134077463699"><ele>242.33333333333334</ele><time>2026-04-11T07:33:52Z</time></trkpt><trkpt lat="43.33136169286397" lon="11.108985005291396"><ele>242.66666666666669</ele><time>2026-04-11T07:33:54Z</time></trkpt><trkpt lat="43.33132938312692" lon="11.108892743021705"><ele>243.0</ele><time>2026-04-11T07:33:55Z</time></trkpt><trkpt lat="43.33132341590604" lon="11.10880650638891"><ele>243.33333333333331</ele><time>2026-04-11T07:33:56Z</time></trkpt><trkpt lat="43.33128811474551" lon="11.108715955984037"><ele>243.66666666666666</ele><time>2026-04-11T07:33:57Z</time></trkpt><trkpt lat="43.33124582657815" lon="11.108630007317958"><ele>244.0</ele><time>2026-04-11T07:33:58Z</time></trkpt><trkpt lat="43.33122584367042" lon="11.10852038079526"><ele>243.99999999999997</ele><time>2026-04-11T07:33:59Z</time></trkpt><trkpt lat="43.33123006532744" lon="11.10838834693372"><ele>244.0</ele><time>2026-04-11T07:34:00Z</time></trkpt><trkpt lat="43.331208444019076" lon="11.108293601097362"><ele>244.0</ele><time>2026-04-11T07:34:01Z</time></trkpt><trkpt lat="43.33115395152384" lon="11.10820227606142"><ele>244.0</ele><time>2026-04-11T07:34:02Z</time></trkpt><trkpt lat="43.331098483288336" lon="11.108136479603917"><ele>243.99999999999997</ele><time>2026-04-11T07:34:03Z</time></trkpt><trkpt lat="43.331029985154096" lon="11.10805464704045"><ele>244.0</ele><time>2026-04-11T07:34:05Z</time></trkpt><trkpt lat="43.33098414501447" lon="11.107995099771543"><ele>243.33333333333331</ele><time>2026-04-11T07:34:06Z</time></trkpt><trkpt lat="43.33092919776286" lon="11.107938900158256"><ele>242.66666666666666</ele><time>2026-04-11T07:34:07Z</time></trkpt><trkpt lat="43.33086800807321" lon="11.1078937462817"><ele>242.0</ele><time>2026-04-11T07:34:08Z</time></trkpt><trkpt lat="43.33080996951247" lon="11.107849801020695"><ele>241.33333333333331</ele><time>2026-04-11T07:34:09Z</time></trkpt><trkpt lat="43.330746427073514" lon="11.10780439520981"><ele>240.66666666666666</ele><time>2026-04-11T07:34:10Z</time></trkpt><trkpt lat="43.33067537977258" lon="11.107784984132351"><ele>240.0</ele><time>2026-04-11T07:34:11Z</time></trkpt><trkpt lat="43.33054307551136" lon="11.107815809335323"><ele>239.5</ele><time>2026-04-11T07:34:13Z</time></trkpt><trkpt lat="43.33047015390982" lon="11.107829748349342"><ele>239.0</ele><time>2026-04-11T07:34:14Z</time></trkpt><trkpt lat="43.330395507659915" lon="11.107863275677277"><ele>238.5</ele><time>2026-04-11T07:34:15Z</time></trkpt><trkpt lat="43.33032647336477" lon="11.107874303809345"><ele>238.0</ele><time>2026-04-11T07:34:16Z</time></trkpt><trkpt lat="43.33025795034789" lon="11.107903139196479"><ele>237.5</ele><time>2026-04-11T07:34:17Z</time></trkpt><trkpt lat="43.330189808370015" lon="11.107859210414569"><ele>237.0</ele><time>2026-04-11T07:34:18Z</time></trkpt><trkpt lat="43.33007644434822" lon="11.107771645681467"><ele>237.0</ele><time>2026-04-11T07:34:19Z</time></trkpt><trkpt lat="43.32998871572462" lon="11.107725471219474"><ele>237.0</ele><time>2026-04-11T07:34:20Z</time></trkpt><trkpt lat="43.32985007394126" lon="11.107732629882872"><ele>237.0</ele><time>2026-04-11T07:34:22Z</time></trkpt><trkpt lat="43.32978806372541" lon="11.10769203979978"><ele>237.0</ele><time>2026-04-11T07:34:23Z</time></trkpt><trkpt lat="43.32974362391631" lon="11.10760915848486"><ele>237.0</ele><time>2026-04-11T07:34:24Z</time></trkpt><trkpt lat="43.329718832262756" lon="11.107500746624892"><ele>236.8</ele><time>2026-04-11T07:34:25Z</time></trkpt><trkpt lat="43.32967654991219" lon="11.107415250665653"><ele>236.6</ele><time>2026-04-11T07:34:26Z</time></trkpt><trkpt lat="43.32961179872588" lon="11.107364424441336"><ele>236.40000000000003</ele><time>2026-04-11T07:34:27Z</time></trkpt><trkpt lat="43.32955164549121" lon="11.10720245974886"><ele>236.20000000000002</ele><time>2026-04-11T07:34:29Z</time></trkpt><trkpt lat="43.32955027088731" lon="11.10706322021982"><ele>236.0</ele><time>2026-04-11T07:34:30Z</time></trkpt><trkpt lat="43.32953638694981" lon="11.106943551162194"><ele>235.66666666666669</ele><time>2026-04-11T07:34:31Z</time></trkpt><trkpt lat="43.32950032472949" lon="11.106870055461775"><ele>235.33333333333334</ele><time>2026-04-11T07:34:32Z</time></trkpt><trkpt lat="43.32945495292764" lon="11.106788547313238"><ele>235.0</ele><time>2026-04-11T07:34:33Z</time></trkpt><trkpt lat="43.329393153020895" lon="11.106701772245094"><ele>234.66666666666669</ele><time>2026-04-11T07:34:34Z</time></trkpt><trkpt lat="43.32926517894394" lon="11.106663498201437"><ele>234.33333333333334</ele><time>2026-04-11T07:34:36Z</time></trkpt><trkpt lat="43.32919442533403" lon="11.106657213891696"><ele>234.0</ele><time>2026-04-11T07:34:37Z</time></trkpt><trkpt lat="43.32912302787367" lon="11.106650448662945"><ele>234.0</ele><time>2026-04-11T07:34:38Z</time></trkpt><trkpt lat="43.32905493409639" lon="11.106654864257724"><ele>233.99999999999997</ele><time>2026-04-11T07:34:39Z</time></trkpt><trkpt lat="43.328951389544905" lon="11.106657901262937"><ele>233.99999999999997</ele><time>2026-04-11T07:34:40Z</time></trkpt><trkpt lat="43.32883157605113" lon="11.106651621806797"><ele>234.0</ele><time>2026-04-11T07:34:41Z</time></trkpt><trkpt lat="43.32872935780307" lon="11.106645932145993"><ele>234.0</ele><time>2026-04-11T07:34:42Z</time></trkpt><trkpt lat="43.32863862545635" lon="11.106656960775668"><ele>233.66666666666666</ele><time>2026-04-11T07:34:43Z</time></trkpt><trkpt lat="43.32854609812837" lon="11.106593565940441"><ele>233.33333333333331</ele><time>2026-04-11T07:34:45Z</time></trkpt><trkpt lat="43.3284764379504" lon="11.106606704863356"><ele>233.0</ele><time>2026-04-11T07:34:46Z</time></trkpt><trkpt lat="43.32841495233071" lon="11.106657409002736"><ele>232.66666666666666</ele><time>2026-04-11T07:34:47Z</time></trkpt><trkpt lat="43.32833537508941" lon="11.10673876298397"><ele>232.33333333333331</ele><time>2026-04-11T07:34:48Z</time></trkpt><trkpt lat="43.328251665869814" lon="11.10675745707845"><ele>232.0</ele><time>2026-04-11T07:34:49Z</time></trkpt><trkpt lat="43.328175946792186" lon="11.106734329568708"><ele>232.0</ele><time>2026-04-11T07:34:50Z</time></trkpt><trkpt lat="43.32809479250117" lon="11.106693662355454"><ele>232.0</ele><time>2026-04-11T07:34:51Z</time></trkpt><trkpt lat="43.32799137607841" lon="11.106658362246936"><ele>232.0</ele><time>2026-04-11T07:34:52Z</time></trkpt><trkpt lat="43.32788699944423" lon="11.106631953153887"><ele>232.0</ele><time>2026-04-11T07:34:53Z</time></trkpt><trkpt lat="43.32781098610878" lon="11.106627871694473"><ele>232.0</ele><time>2026-04-11T07:34:54Z</time></trkpt><trkpt lat="43.32775036067676" lon="11.10656416266609"><ele>231.6</ele><time>2026-04-11T07:34:56Z</time></trkpt><trkpt lat="43.32769546734065" lon="11.10640841231325"><ele>231.2</ele><time>2026-04-11T07:34:57Z</time></trkpt><trkpt lat="43.32763936477655" lon="11.106292645966086"><ele>230.8</ele><time>2026-04-11T07:34:58Z</time></trkpt><trkpt lat="43.327574719553596" lon="11.106255133053585"><ele>230.4</ele><time>2026-04-11T07:34:59Z</time></trkpt><trkpt lat="43.32751042582586" lon="11.10628908840693"><ele>230.0</ele><time>2026-04-11T07:35:00Z</time></trkpt><trkpt lat="43.327446074751236" lon="11.106364592450094"><ele>230.00000000000003</ele><time>2026-04-11T07:35:01Z</time></trkpt><trkpt lat="43.32737201037691" lon="11.106389446100906"><ele>230.0</ele><time>2026-04-11T07:35:02Z</time></trkpt><trkpt lat="43.32728600496622" lon="11.106376779173425"><ele>230.0</ele><time>2026-04-11T07:35:03Z</time></trkpt><trkpt lat="43.3271996701749" lon="11.106347248770355"><ele>230.0</ele><time>2026-04-11T07:35:04Z</time></trkpt><trkpt lat="43.327107700009975" lon="11.1063555760818"><ele>230.00000000000003</ele><time>2026-04-11T07:35:05Z</time></trkpt><trkpt lat="43.3270148067328" lon="11.106423241745434"><ele>230.0</ele><time>2026-04-11T07:35:06Z</time></trkpt><trkpt lat="43.326876932133146" lon="11.10639966424297"><ele>229.6</ele><time>2026-04-11T07:35:08Z</time></trkpt><trkpt lat="43.3267678594851" lon="11.10632496433528"><ele>229.2</ele><time>2026-04-11T07:35:09Z</time></trkpt><trkpt lat="43.32666530414862" lon="11.106279426982951"><ele>228.8</ele><time>2026-04-11T07:35:10Z</time></trkpt><trkpt lat="43.32656829030282" lon="11.106230964972747"><ele>228.4</ele><time>2026-04-11T07:35:11Z</time></trkpt><trkpt lat="43.32649929832481" lon="11.106190943975419"><ele>228.0</ele><time>2026-04-11T07:35:12Z</time></trkpt><trkpt lat="43.32643088539392" lon="11.106178780339548"><ele>227.66666666666666</ele><time>2026-04-11T07:35:13Z</time></trkpt><trkpt lat="43.32635823318206" lon="11.106203780178591"><ele>227.33333333333331</ele><time>2026-04-11T07:35:14Z</time></trkpt><trkpt lat="43.326340656342076" lon="11.106329939795787"><ele>227.0</ele><time>2026-04-11T07:35:17Z</time></trkpt><trkpt lat="43.326301770853625" lon="11.10644011879383"><ele>226.66666666666666</ele><time>2026-04-11T07:35:19Z</time></trkpt><trkpt lat="43.326230354681265" lon="11.10640147142943"><ele>226.33333333333331</ele><time>2026-04-11T07:35:21Z</time></trkpt><trkpt lat="43.32616064840619" lon="11.106304824996295"><ele>226.0</ele><time>2026-04-11T07:35:23Z</time></trkpt><trkpt lat="43.32607574730576" lon="11.106361856831976"><ele>226.0</ele><time>2026-04-11T07:35:25Z</time></trkpt><trkpt lat="43.32599949563456" lon="11.106476267519344"><ele>226.00000000000003</ele><time>2026-04-11T07:35:26Z</time></trkpt><trkpt lat="43.32590989508929" lon="11.106557241528744"><ele>226.00000000000003</ele><time>2026-04-11T07:35:27Z</time></trkpt><trkpt lat="43.32582942438483" lon="11.106598055330767"><ele>226.0</ele><time>2026-04-11T07:35:28Z</time></trkpt><trkpt lat="43.32577851171408" lon="11.106658320293645"><ele>226.0</ele><time>2026-04-11T07:35:29Z</time></trkpt><trkpt lat="43.32573963376796" lon="11.106751011504763"><ele>226.57142857142858</ele><time>2026-04-11T07:35:30Z</time></trkpt><trkpt lat="43.32567210415644" lon="11.106804830681892"><ele>227.1428571428571</ele><time>2026-04-11T07:35:31Z</time></trkpt><trkpt lat="43.32559804516648" lon="11.106829124843154"><ele>227.7142857142857</ele><time>2026-04-11T07:35:32Z</time></trkpt><trkpt lat="43.325534242778126" lon="11.106816241615737"><ele>228.28571428571428</ele><time>2026-04-11T07:35:33Z</time></trkpt><trkpt lat="43.325468204204455" lon="11.106803760070303"><ele>228.85714285714283</ele><time>2026-04-11T07:35:34Z</time></trkpt><trkpt lat="43.325397615608665" lon="11.106876242667118"><ele>229.4285714285714</ele><time>2026-04-11T07:35:36Z</time></trkpt><trkpt lat="43.32534506878034" lon="11.106823137672118"><ele>229.99999999999997</ele><time>2026-04-11T07:35:38Z</time></trkpt><trkpt lat="43.32529766187074" lon="11.106748306784679"><ele>230.16666666666669</ele><time>2026-04-11T07:35:40Z</time></trkpt><trkpt lat="43.32523608642763" lon="11.10670706027175"><ele>230.33333333333334</ele><time>2026-04-11T07:35:41Z</time></trkpt><trkpt lat="43.32518025266893" lon="11.10654813928503"><ele>230.5</ele><time>2026-04-11T07:35:42Z</time></trkpt><trkpt lat="43.32512344859882" lon="11.106479237237508"><ele>230.66666666666669</ele><time>2026-04-11T07:35:43Z</time></trkpt><trkpt lat="43.32505830616231" lon="11.10644356597529"><ele>230.83333333333334</ele><time>2026-04-11T07:35:44Z</time></trkpt><trkpt lat="43.32499222689204" lon="11.10641679708935"><ele>231.0</ele><time>2026-04-11T07:35:45Z</time></trkpt><trkpt lat="43.324934455891025" lon="11.106347793396795"><ele>230.4</ele><time>2026-04-11T07:35:46Z</time></trkpt><trkpt lat="43.324847678449565" lon="11.106293276415274"><ele>229.8</ele><time>2026-04-11T07:35:48Z</time></trkpt><trkpt lat="43.324740599047445" lon="11.106201869049958"><ele>229.20000000000002</ele><time>2026-04-11T07:35:50Z</time></trkpt><trkpt lat="43.32466611329969" lon="11.106127176330633"><ele>228.60000000000002</ele><time>2026-04-11T07:35:51Z</time></trkpt><trkpt lat="43.324588106116906" lon="11.106052340173052"><ele>228.0</ele><time>2026-04-11T07:35:52Z</time></trkpt><trkpt lat="43.324525821063624" lon="11.105956397525615"><ele>229.0</ele><time>2026-04-11T07:35:53Z</time></trkpt><trkpt lat="43.3244626729285" lon="11.10587202520597"><ele>230.0</ele><time>2026-04-11T07:35:54Z</time></trkpt><trkpt lat="43.32439902991107" lon="11.105813270034279"><ele>231.0</ele><time>2026-04-11T07:35:55Z</time></trkpt><trkpt lat="43.32433560890215" lon="11.105738136221216"><ele>232.0</ele><time>2026-04-11T07:35:56Z</time></trkpt><trkpt lat="43.324289025457276" lon="11.105666790236569"><ele>233.0</ele><time>2026-04-11T07:35:57Z</time></trkpt><trkpt lat="43.32425236877664" lon="11.105581965694748"><ele>234.0</ele><time>2026-04-11T07:35:58Z</time></trkpt><trkpt lat="43.3242568327314" lon="11.105476167409494"><ele>234.0</ele><time>2026-04-11T07:35:59Z</time></trkpt><trkpt lat="43.324229972546924" lon="11.105389982496986"><ele>233.99999999999997</ele><time>2026-04-11T07:36:00Z</time></trkpt><trkpt lat="43.32412612357523" lon="11.105371705720225"><ele>233.99999999999997</ele><time>2026-04-11T07:36:01Z</time></trkpt><trkpt lat="43.3240661960372" lon="11.10530013032616"><ele>234.0</ele><time>2026-04-11T07:36:02Z</time></trkpt><trkpt lat="43.32401614413318" lon="11.10517526714913"><ele>234.0</ele><time>2026-04-11T07:36:04Z</time></trkpt><trkpt lat="43.32392980281959" lon="11.10522668249617"><ele>234.0</ele><time>2026-04-11T07:36:07Z</time></trkpt><trkpt lat="43.32394434592439" lon="11.105135284760923"><ele>233.99999999999997</ele><time>2026-04-11T07:36:10Z</time></trkpt><trkpt lat="43.32393068909103" lon="11.10498071952327"><ele>233.99999999999997</ele><time>2026-04-11T07:36:13Z</time></trkpt><trkpt lat="43.32383038406419" lon="11.10488883285589"><ele>234.0</ele><time>2026-04-11T07:36:15Z</time></trkpt><trkpt lat="43.32373607759994" lon="11.104767533011957"><ele>234.0</ele><time>2026-04-11T07:36:18Z</time></trkpt><trkpt lat="43.32371901561549" lon="11.104653114270556"><ele>233.33333333333334</ele><time>2026-04-11T07:36:19Z</time></trkpt><trkpt lat="43.32370207112865" lon="11.104546981427315"><ele>232.66666666666669</ele><time>2026-04-11T07:36:20Z</time></trkpt><trkpt lat="43.323682978852595" lon="11.104444588806793"><ele>232.0</ele><time>2026-04-11T07:36:21Z</time></trkpt><trkpt lat="43.32366349094255" lon="11.104342508785942"><ele>231.33333333333334</ele><time>2026-04-11T07:36:22Z</time></trkpt><trkpt lat="43.32364798703147" lon="11.10423579315313"><ele>230.66666666666669</ele><time>2026-04-11T07:36:23Z</time></trkpt><trkpt lat="43.3236298321202" lon="11.104143566178855"><ele>230.0</ele><time>2026-04-11T07:36:24Z</time></trkpt><trkpt lat="43.32361404919513" lon="11.104009748030505"><ele>230.00000000000003</ele><time>2026-04-11T07:36:26Z</time></trkpt><trkpt lat="43.323679911070336" lon="11.10397283304097"><ele>230.0</ele><time>2026-04-11T07:36:28Z</time></trkpt><trkpt lat="43.32373569883543" lon="11.10401409528012"><ele>230.0</ele><time>2026-04-11T07:36:29Z</time></trkpt><trkpt lat="43.32380383620614" lon="11.104077311810201"><ele>230.0</ele><time>2026-04-11T07:36:30Z</time></trkpt><trkpt lat="43.32387637642464" lon="11.104123386213184"><ele>230.00000000000003</ele><time>2026-04-11T07:36:31Z</time></trkpt><trkpt lat="43.32395982769741" lon="11.104117953408474"><ele>230.0</ele><time>2026-04-11T07:36:32Z</time></trkpt><trkpt lat="43.32405112502567" lon="11.104082052746724"><ele>230.4</ele><time>2026-04-11T07:36:33Z</time></trkpt><trkpt lat="43.32414311586432" lon="11.104070400030462"><ele>230.8</ele><time>2026-04-11T07:36:34Z</time></trkpt><trkpt lat="43.32421460552556" lon="11.104066068034225"><ele>231.2</ele><time>2026-04-11T07:36:35Z</time></trkpt><trkpt lat="43.324259442691144" lon="11.103952211384149"><ele>231.6</ele><time>2026-04-11T07:36:37Z</time></trkpt><trkpt lat="43.32427205447847" lon="11.103825004593887"><ele>232.0</ele><time>2026-04-11T07:36:38Z</time></trkpt><trkpt lat="43.324300780611665" lon="11.103694325267352"><ele>232.0</ele><time>2026-04-11T07:36:39Z</time></trkpt><trkpt lat="43.32433396471188" lon="11.103554841945666"><ele>232.0</ele><time>2026-04-11T07:36:40Z</time></trkpt><trkpt lat="43.32436397133655" lon="11.103417039208956"><ele>232.0</ele><time>2026-04-11T07:36:41Z</time></trkpt><trkpt lat="43.32438763154933" lon="11.103278487887996"><ele>232.0</ele><time>2026-04-11T07:36:42Z</time></trkpt><trkpt lat="43.324410218955975" lon="11.103151828457888"><ele>232.0</ele><time>2026-04-11T07:36:43Z</time></trkpt><trkpt lat="43.32443694482066" lon="11.103035448587296"><ele>231.16666666666666</ele><time>2026-04-11T07:36:44Z</time></trkpt><trkpt lat="43.32446745636441" lon="11.102932614397927"><ele>230.33333333333331</ele><time>2026-04-11T07:36:45Z</time></trkpt><trkpt lat="43.32450191003512" lon="11.10283291534871"><ele>229.5</ele><time>2026-04-11T07:36:46Z</time></trkpt><trkpt lat="43.3245331606533" lon="11.102754094454447"><ele>228.66666666666669</ele><time>2026-04-11T07:36:47Z</time></trkpt><trkpt lat="43.32455397032922" lon="11.102656567340183"><ele>227.83333333333334</ele><time>2026-04-11T07:36:48Z</time></trkpt><trkpt lat="43.32458410375634" lon="11.102498269338298"><ele>227.0</ele><time>2026-04-11T07:36:50Z</time></trkpt><trkpt lat="43.32458443513736" lon="11.102392807310865"><ele>225.85714285714286</ele><time>2026-04-11T07:36:51Z</time></trkpt><trkpt lat="43.32458021277631" lon="11.10228106783477"><ele>224.71428571428572</ele><time>2026-04-11T07:36:52Z</time></trkpt><trkpt lat="43.32458443853752" lon="11.102188929042283"><ele>223.57142857142858</ele><time>2026-04-11T07:36:53Z</time></trkpt><trkpt lat="43.32459498545046" lon="11.102081614690208"><ele>222.42857142857144</ele><time>2026-04-11T07:36:54Z</time></trkpt><trkpt lat="43.324599756920335" lon="11.101985919658327"><ele>221.28571428571428</ele><time>2026-04-11T07:36:55Z</time></trkpt><trkpt lat="43.324591222100324" lon="11.101888125922711"><ele>220.14285714285717</ele><time>2026-04-11T07:36:56Z</time></trkpt><trkpt lat="43.32456725063071" lon="11.101805365462011"><ele>219.0</ele><time>2026-04-11T07:36:57Z</time></trkpt><trkpt lat="43.32445441137646" lon="11.101689367439157"><ele>219.0</ele><time>2026-04-11T07:36:59Z</time></trkpt><trkpt lat="43.32436857163326" lon="11.101678828052664"><ele>219.0</ele><time>2026-04-11T07:37:00Z</time></trkpt><trkpt lat="43.324305548389006" lon="11.101589973580733"><ele>219.0</ele><time>2026-04-11T07:37:01Z</time></trkpt><trkpt lat="43.32423608627493" lon="11.10154707501431"><ele>219.0</ele><time>2026-04-11T07:37:02Z</time></trkpt><trkpt lat="43.324167659270394" lon="11.10150613226614"><ele>219.0</ele><time>2026-04-11T07:37:03Z</time></trkpt><trkpt lat="43.324087399296666" lon="11.101448654765807"><ele>219.0</ele><time>2026-04-11T07:37:04Z</time></trkpt><trkpt lat="43.324027748067344" lon="11.101403738456268"><ele>217.6</ele><time>2026-04-11T07:37:05Z</time></trkpt><trkpt lat="43.3239668302451" lon="11.101311353664931"><ele>216.2</ele><time>2026-04-11T07:37:07Z</time></trkpt><trkpt lat="43.323987999511814" lon="11.101194501369074"><ele>214.79999999999998</ele><time>2026-04-11T07:37:10Z</time></trkpt><trkpt lat="43.324053728920305" lon="11.101052962976192"><ele>213.39999999999998</ele><time>2026-04-11T07:37:12Z</time></trkpt><trkpt lat="43.324125834796064" lon="11.100925385723366"><ele>212.0</ele><time>2026-04-11T07:37:14Z</time></trkpt><trkpt lat="43.32415872409025" lon="11.100842974090371"><ele>211.2</ele><time>2026-04-11T07:37:15Z</time></trkpt><trkpt lat="43.32418217496919" lon="11.100738319225227"><ele>210.39999999999998</ele><time>2026-04-11T07:37:16Z</time></trkpt><trkpt lat="43.32421877262323" lon="11.10062901188098"><ele>209.60000000000002</ele><time>2026-04-11T07:37:17Z</time></trkpt><trkpt lat="43.32424274990426" lon="11.100498803423402"><ele>208.8</ele><time>2026-04-11T07:37:18Z</time></trkpt><trkpt lat="43.32426793461497" lon="11.100362038038302"><ele>208.0</ele><time>2026-04-11T07:37:19Z</time></trkpt><trkpt lat="43.32429263610439" lon="11.100227896760778"><ele>208.0</ele><time>2026-04-11T07:37:20Z</time></trkpt><trkpt lat="43.32431825196798" lon="11.10008878999324"><ele>208.0</ele><time>2026-04-11T07:37:21Z</time></trkpt><trkpt lat="43.32434180637483" lon="11.099960877944484"><ele>208.0</ele><time>2026-04-11T07:37:22Z</time></trkpt><trkpt lat="43.32436655261509" lon="11.09982649365237"><ele>208.0</ele><time>2026-04-11T07:37:23Z</time></trkpt><trkpt lat="43.324391580143995" lon="11.099697839539218"><ele>208.0</ele><time>2026-04-11T07:37:24Z</time></trkpt><trkpt lat="43.32441500523804" lon="11.099579406741908"><ele>208.33333333333331</ele><time>2026-04-11T07:37:25Z</time></trkpt><trkpt lat="43.32443858672024" lon="11.099460183287572"><ele>208.66666666666666</ele><time>2026-04-11T07:37:26Z</time></trkpt><trkpt lat="43.324461526222564" lon="11.099343722118707"><ele>209.0</ele><time>2026-04-11T07:37:27Z</time></trkpt><trkpt lat="43.324482141181484" lon="11.099232947760878"><ele>209.33333333333331</ele><time>2026-04-11T07:37:28Z</time></trkpt><trkpt lat="43.32450126036198" lon="11.099124105672159"><ele>209.66666666666666</ele><time>2026-04-11T07:37:29Z</time></trkpt><trkpt lat="43.32451583140189" lon="11.099016559570051"><ele>210.0</ele><time>2026-04-11T07:37:30Z</time></trkpt><trkpt lat="43.324528489781564" lon="11.098922967633388"><ele>211.0</ele><time>2026-04-11T07:37:31Z</time></trkpt><trkpt lat="43.3245422622008" lon="11.098825170187805"><ele>212.0</ele><time>2026-04-11T07:37:32Z</time></trkpt><trkpt lat="43.32456335311036" lon="11.09867543707393"><ele>213.0</ele><time>2026-04-11T07:37:34Z</time></trkpt><trkpt lat="43.32457443335596" lon="11.098587901437755"><ele>214.0</ele><time>2026-04-11T07:37:36Z</time></trkpt><trkpt lat="43.32442515280439" lon="11.098521363934983"><ele>215.0</ele><time>2026-04-11T07:37:42Z</time></trkpt><trkpt lat="43.324352459973944" lon="11.098545848373819"><ele>215.0</ele><time>2026-04-11T07:37:43Z</time></trkpt><trkpt lat="43.324278099811565" lon="11.09854706103721"><ele>215.0</ele><time>2026-04-11T07:37:44Z</time></trkpt><trkpt lat="43.324180091472705" lon="11.09859867343997"><ele>215.0</ele><time>2026-04-11T07:37:45Z</time></trkpt><trkpt lat="43.32407718418854" lon="11.098632815236483"><ele>215.0</ele><time>2026-04-11T07:37:46Z</time></trkpt><trkpt lat="43.32397744531161" lon="11.098660457734725"><ele>215.0</ele><time>2026-04-11T07:37:47Z</time></trkpt><trkpt lat="43.32388280208437" lon="11.098689634062646"><ele>217.0</ele><time>2026-04-11T07:37:48Z</time></trkpt><trkpt lat="43.32379327202482" lon="11.098718859944844"><ele>217.0</ele><time>2026-04-11T07:37:49Z</time></trkpt><trkpt lat="43.32370932050409" lon="11.098745185497233"><ele>217.0</ele><time>2026-04-11T07:37:50Z</time></trkpt><trkpt lat="43.32363447261638" lon="11.098769626696773"><ele>217.0</ele><time>2026-04-11T07:37:51Z</time></trkpt><trkpt lat="43.323567687369916" lon="11.098793663670257"><ele>217.0</ele><time>2026-04-11T07:37:52Z</time></trkpt><trkpt lat="43.32346497289761" lon="11.09883390518685"><ele>217.0</ele><time>2026-04-11T07:37:54Z</time></trkpt></trkseg></trk></gpx>